Time;durP1;ratioP1;P1;durP2;ratioP2;P2;SDS_P1;SDS_P2;PMS_P1;PMS_P2;Temp;Humidity;BMP_temperature;BMP_pressure;BME280_temperature;BME280_humidity;BME280_pressure;Samples;Min_cycle;Max_cycle;Signal;HPM_P1;HPM_P2
2021/01/12 00:02:35;;;;;;;35.23;28.73;;;;;;;2.76;61.59;97936.28;8499956;27;20253;-72
2021/01/12 00:06:37;;;;;;;33.67;25.07;;;;;;;1.94;53.49;97912.56;8499049;27;20310;-72
2021/01/12 00:10:40;;;;;;;30.10;26.17;;;;;;;1.79;53.21;97907.63;8500061;27;20201;-72
2021/01/12 00:14:43;;;;;;;29.87;25.50;;;;;;;1.91;53.39;97910.03;8498825;27;20217;-72
2021/01/12 00:18:45;;;;;;;31.10;25.60;;;;;;;1.95;53.65;97904.03;8498200;27;20212;-72
2021/01/12 00:22:46;;;;;;;30.17;25.00;;;;;;;1.89;53.83;97901.53;8499061;27;20204;-72
2021/01/12 00:26:49;;;;;;;33.80;26.63;;;;;;;1.96;53.48;97886.97;8499041;27;20248;-72
2021/01/12 00:30:51;;;;;;;28.47;24.33;;;;;;;1.80;54.27;97882.91;8498563;27;20554;-73
2021/01/12 00:34:53;;;;;;;27.73;24.07;;;;;;;1.82;54.63;97888.84;8498596;27;20201;-71
2021/01/12 00:38:56;;;;;;;26.13;23.07;;;;;;;1.92;54.01;97873.44;8499054;27;20520;-71
2021/01/12 00:42:59;;;;;;;25.20;22.23;;;;;;;1.78;54.65;97866.78;8497385;27;20205;-72
2021/01/12 00:47:00;;;;;;;25.57;22.10;;;;;;;1.77;54.62;97858.25;8497857;27;20274;-71
2021/01/12 00:51:02;;;;;;;25.97;21.40;;;;;;;1.90;54.43;97864.91;8498635;27;20287;-70
2021/01/12 00:55:05;;;;;;;25.43;21.87;;;;;;;1.86;54.22;97857.31;8497856;27;20225;-71
2021/01/12 00:59:08;;;;;;;23.30;20.73;;;;;;;1.86;54.48;97855.59;8498711;27;20252;-71
2021/01/12 01:03:09;;;;;;;23.90;20.73;;;;;;;1.95;54.38;97849.53;8497689;27;20207;-70
2021/01/12 01:07:11;;;;;;;25.60;20.97;;;;;;;1.98;54.11;97846.97;8498364;27;20312;-71
2021/01/12 01:11:13;;;;;;;24.93;21.13;;;;;;;1.81;54.46;97839.50;8497950;27;20533;-72
2021/01/12 01:15:16;;;;;;;24.87;20.60;;;;;;;1.78;53.89;97833.56;8497979;27;20216;-71
2021/01/12 01:19:18;;;;;;;25.57;22.17;;;;;;;1.83;54.29;97829.25;8497523;27;20552;-71
2021/01/12 01:23:20;;;;;;;25.30;22.60;;;;;;;1.90;54.04;97830.88;8497167;27;20208;-71
2021/01/12 01:27:22;;;;;;;24.73;21.43;;;;;;;1.76;55.41;97831.03;8497704;27;20232;-71
2021/01/12 01:31:24;;;;;;;26.03;21.37;;;;;;;2.03;55.31;97832.41;8498051;27;20201;-72
2021/01/12 01:35:26;;;;;;;23.90;21.00;;;;;;;1.85;55.76;97823.28;8496494;27;20235;-68
2021/01/12 01:39:30;;;;;;;23.23;20.77;;;;;;;1.86;56.13;97829.22;8497625;27;20674;-69
2021/01/12 01:43:32;;;;;;;25.23;20.30;;;;;;;1.96;56.45;97812.91;8495681;28;20193;-69
2021/01/12 01:47:35;;;;;;;23.20;19.87;;;;;;;1.98;56.58;97820.56;8497731;28;20672;-68
2021/01/12 01:51:37;;;;;;;23.53;20.17;;;;;;;2.04;56.49;97807.72;8496710;28;20310;-68
2021/01/12 01:55:40;;;;;;;22.40;19.47;;;;;;;1.87;57.13;97802.84;8501904;27;20307;-69
2021/01/12 01:59:43;;;;;;;21.40;19.13;;;;;;;2.16;56.37;97805.00;8504703;27;20241;-68
2021/01/12 02:03:49;;;;;;;22.53;18.83;;;;;;;2.27;56.28;97792.09;8503785;27;20222;-68
2021/01/12 02:07:52;;;;;;;22.87;20.40;;;;;;;2.24;56.17;97792.13;8503024;27;20261;-69
2021/01/12 02:11:57;;;;;;;21.10;18.90;;;;;;;2.22;56.48;97765.75;8503685;27;20553;-69
2021/01/12 02:16:00;;;;;;;22.13;18.50;;;;;;;1.96;57.44;97769.50;8503728;27;20212;-69
2021/01/12 02:20:04;;;;;;;20.47;18.07;;;;;;;2.12;57.03;97753.09;8503309;27;20201;-68
2021/01/12 02:24:09;;;;;;;21.43;19.13;;;;;;;1.96;57.13;97738.84;8503112;27;20208;-68
2021/01/12 02:28:12;;;;;;;21.50;18.43;;;;;;;1.93;57.44;97744.00;8503287;27;20574;-68
2021/01/12 02:32:14;;;;;;;21.93;18.87;;;;;;;2.08;57.46;97741.25;8504087;27;20505;-68
2021/01/12 02:36:20;;;;;;;22.77;20.30;;;;;;;2.14;57.38;97730.94;8503375;27;20238;-68
2021/01/12 02:40:23;;;;;;;21.73;18.93;;;;;;;2.25;57.34;97722.28;8501412;27;20624;-68
2021/01/12 02:44:25;;;;;;;21.93;18.27;;;;;;;1.87;58.76;97710.91;8502526;27;20193;-68
2021/01/12 02:48:27;;;;;;;20.83;17.87;;;;;;;2.15;58.48;97708.78;8501842;27;20232;-68
2021/01/12 02:52:28;;;;;;;20.27;17.60;;;;;;;2.06;59.38;97708.94;8503537;27;20201;-68
2021/01/12 02:56:31;;;;;;;20.10;17.90;;;;;;;2.27;59.04;97708.59;8502075;27;20237;-68
2021/01/12 03:00:33;;;;;;;22.17;19.03;;;;;;;2.28;59.23;97712.00;8501660;27;20197;-68
2021/01/12 03:04:35;;;;;;;19.50;16.93;;;;;;;2.26;58.78;97693.28;8501288;27;20197;-68
2021/01/12 03:08:36;;;;;;;20.37;18.20;;;;;;;2.29;59.45;97681.31;8500992;27;20258;-68
2021/01/12 03:12:40;;;;;;;20.53;17.53;;;;;;;2.46;59.20;97667.44;8501167;27;20213;-68
2021/01/12 03:16:42;;;;;;;20.13;17.13;;;;;;;2.47;58.86;97672.50;8501361;27;20205;-68
2021/01/12 03:20:44;;;;;;;19.90;17.70;;;;;;;2.43;59.07;97654.69;8502087;27;20216;-68
2021/01/12 03:24:46;;;;;;;18.00;16.03;;;;;;;2.46;59.12;97647.81;8501339;27;20193;-68
2021/01/12 03:28:48;;;;;;;19.67;17.20;;;;;;;2.37;59.35;97642.84;8501126;27;20617;-68
2021/01/12 03:32:52;;;;;;;18.33;16.33;;;;;;;2.49;59.68;97634.97;8501895;27;20205;-68
2021/01/12 03:36:53;;;;;;;18.53;15.93;;;;;;;2.57;59.36;97622.06;8499659;27;20648;-68
2021/01/12 03:40:55;;;;;;;18.07;16.17;;;;;;;2.48;59.56;97628.19;8501621;27;20515;-68
2021/01/12 03:44:58;;;;;;;17.83;15.63;;;;;;;2.50;59.89;97617.94;8501227;27;20205;-67
2021/01/12 03:48:59;;;;;;;14.73;13.13;;;;;;;2.52;60.51;97616.19;8500151;27;20239;-68
2021/01/12 03:53:01;;;;;;;15.37;13.73;;;;;;;2.61;60.69;97604.94;8502117;27;20543;-68
2021/01/12 03:57:03;;;;;;;17.00;14.70;;;;;;;2.52;60.50;97600.84;8501070;27;20233;-68
2021/01/12 04:01:05;;;;;;;16.97;12.93;;;;;;;2.45;60.96;97584.78;8500784;27;20239;-68
2021/01/12 04:05:10;;;;;;;14.83;13.33;;;;;;;2.57;60.66;97580.31;8500730;27;20513;-68
2021/01/12 04:09:12;;;;;;;16.40;13.20;;;;;;;2.28;61.50;97582.50;8500453;27;20341;-68
2021/01/12 04:13:13;;;;;;;14.73;13.20;;;;;;;2.39;61.44;97576.38;8499623;27;20264;-68
2021/01/12 04:17:16;;;;;;;14.27;12.70;;;;;;;2.52;61.14;97570.19;8498781;27;20201;-68
2021/01/12 04:21:18;;;;;;;13.60;12.20;;;;;;;2.53;61.16;97566.72;8498905;27;20201;-68
2021/01/12 04:25:20;;;;;;;13.33;11.93;;;;;;;2.51;61.33;97558.25;8499281;27;20201;-68
2021/01/12 04:29:21;;;;;;;14.23;12.73;;;;;;;2.50;61.05;97549.75;8497030;27;20228;-68
2021/01/12 04:33:24;;;;;;;13.80;12.37;;;;;;;2.69;60.82;97546.84;8498717;27;20205;-68
2021/01/12 04:37:26;;;;;;;14.03;12.50;;;;;;;2.66;61.03;97552.00;8499719;27;20210;-68
2021/01/12 04:41:28;;;;;;;13.50;12.10;;;;;;;2.66;60.83;97550.28;8498761;27;20196;-68
2021/01/12 04:45:29;;;;;;;13.13;11.77;;;;;;;2.86;60.44;97546.53;8498448;27;20234;-68
2021/01/12 04:49:32;;;;;;;12.70;11.40;;;;;;;2.89;60.21;97541.31;8498012;27;20247;-68
2021/01/12 04:53:38;;;;;;;12.37;11.07;;;;;;;3.00;59.64;97528.31;8498399;27;20197;-68
2021/01/12 04:57:40;;;;;;;12.03;10.90;;;;;;;2.77;59.89;97513.47;8498711;27;20236;-68
2021/01/12 05:01:42;;;;;;;12.97;11.63;;;;;;;2.87;59.91;97510.66;8497791;27;20248;-68
2021/01/12 05:05:45;;;;;;;12.77;11.47;;;;;;;2.72;60.29;97509.28;8497981;27;20200;-68
2021/01/12 05:09:47;;;;;;;12.13;10.83;;;;;;;2.65;60.14;97487.25;8499116;27;20614;-68
2021/01/12 05:13:54;;;;;;;12.97;11.07;;;;;;;2.58;60.47;97472.09;8497436;27;20217;-68
2021/01/12 05:17:57;;;;;;;12.80;11.50;;;;;;;2.76;60.17;97475.97;8497494;27;20189;-68
2021/01/12 05:22:03;;;;;;;14.03;12.17;;;;;;;2.81;59.74;97480.09;8497376;27;20193;-68
2021/01/12 05:26:06;;;;;;;14.50;12.53;;;;;;;2.74;59.82;97466.63;8498564;27;20542;-68
2021/01/12 05:30:09;;;;;;;14.63;12.27;;;;;;;2.76;59.53;97464.03;8496339;27;20231;-68
2021/01/12 05:34:11;;;;;;;13.60;12.20;;;;;;;2.79;59.53;97460.56;8496861;27;20201;-68
2021/01/12 05:38:27;;;;;;;13.30;11.97;;;;;;;2.51;60.23;97441.53;8498382;27;20205;-68
2021/01/12 05:42:30;;;;;;;12.97;11.67;;;;;;;2.79;59.70;97435.00;8497745;28;20194;-68
2021/01/12 05:46:32;;;;;;;14.30;12.53;;;;;;;2.92;59.50;97429.56;8497747;28;20537;-68
2021/01/12 05:50:34;;;;;;;13.20;11.37;;;;;;;2.87;59.74;97428.81;8497891;28;20668;-68
2021/01/12 05:54:37;;;;;;;14.40;12.90;;;;;;;2.90;59.70;97415.13;8497227;28;20204;-68
2021/01/12 05:58:47;;;;;;;15.00;12.40;;;;;;;2.99;59.60;97419.19;8497248;28;20229;-68
2021/01/12 06:02:50;;;;;;;12.53;11.23;;;;;;;3.01;60.18;97404.63;8496717;28;20205;-68
2021/01/12 06:06:53;;;;;;;13.03;10.63;;;;;;;2.98;61.10;97399.63;8496923;28;20299;-68
2021/01/12 06:10:56;;;;;;;12.73;11.27;;;;;;;2.80;62.32;97396.59;8496604;28;20223;-68
2021/01/12 06:14:59;;;;;;;12.17;10.87;;;;;;;3.02;62.66;97385.88;8497500;28;20194;-68
2021/01/12 06:19:12;;;;;;;12.30;11.00;;;;;;;2.94;63.79;97368.16;8497666;28;20208;-68
2021/01/12 06:23:18;;;;;;;11.77;10.40;;;;;;;2.85;64.85;97363.25;8496219;28;20299;-68
2021/01/12 06:27:24;;;;;;;11.87;10.60;;;;;;;2.93;65.05;97353.66;8494949;28;20216;-68
2021/01/12 06:31:26;;;;;;;12.77;10.00;;;;;;;2.93;65.77;97356.22;8481788;28;20498;-68
2021/01/12 06:35:29;;;;;;;9.97;8.97;;;;;;;2.76;67.02;97361.75;8462125;28;20198;-68
2021/01/12 06:39:39;;;;;;;10.00;8.77;;;;;;;2.84;67.36;97349.63;8463313;28;20201;-68
2021/01/12 06:43:49;;;;;;;10.23;8.63;;;;;;;2.97;67.00;97346.75;8482495;27;20213;-67
2021/01/12 06:47:50;;;;;;;9.70;8.70;;;;;;;2.89;67.09;97345.25;8483684;27;20220;-68
2021/01/12 06:51:59;;;;;;;11.50;9.20;;;;;;;2.87;67.36;97336.75;8501909;27;20208;-68
2021/01/12 06:56:05;;;;;;;10.37;9.20;;;;;;;3.10;66.61;97327.69;8505858;27;20680;-68
2021/01/12 07:00:09;;;;;;;9.53;8.53;;;;;;;2.99;67.33;97322.84;8492110;27;20240;-68
2021/01/12 07:04:20;;;;;;;10.70;9.60;;;;;;;2.94;66.85;97325.50;8501008;27;20197;-68
2021/01/12 07:08:23;;;;;;;10.10;9.00;;;;;;;2.96;67.80;97328.03;8499822;27;20221;-68
2021/01/12 07:12:27;;;;;;;11.27;9.43;;;;;;;3.05;67.17;97302.22;8478180;27;20723;-67
2021/01/12 07:16:29;;;;;;;11.10;9.77;;;;;;;3.10;67.12;97307.22;8468868;28;20197;-67
2021/01/12 07:20:36;;;;;;;9.73;8.73;;;;;;;3.22;67.12;97306.91;8469205;28;20300;-67
2021/01/12 07:24:41;;;;;;;9.60;8.23;;;;;;;3.17;67.71;97302.78;8469524;28;20186;-67
2021/01/12 07:28:46;;;;;;;9.47;8.47;;;;;;;3.20;67.60;97302.69;8468420;28;20232;-68
2021/01/12 07:32:54;;;;;;;9.10;8.20;;;;;;;3.15;68.18;97299.44;8468676;28;20217;-68
2021/01/12 07:36:57;;;;;;;9.77;7.70;;;;;;;2.97;68.78;97290.47;8470582;28;20248;-68
2021/01/12 07:41:00;;;;;;;8.40;7.57;;;;;;;3.06;68.76;97288.53;8467278;28;20205;-68
2021/01/12 07:45:03;;;;;;;8.80;7.90;;;;;;;3.28;68.04;97285.44;8467758;28;20208;-68
2021/01/12 07:49:06;;;;;;;8.83;7.80;;;;;;;3.26;67.61;97276.97;8467403;28;20218;-68
2021/01/12 07:53:08;;;;;;;9.80;8.80;;;;;;;3.27;67.82;97270.97;8466677;28;20206;-68
2021/01/12 07:57:10;;;;;;;9.10;8.20;;;;;;;3.20;68.40;97269.44;8467602;28;20520;-68
2021/01/12 08:01:13;;;;;;;9.03;8.10;;;;;;;3.32;68.11;97272.53;8467611;28;20209;-70
2021/01/12 08:05:17;;;;;;;8.37;7.50;;;;;;;3.33;68.16;97269.09;8466981;28;20201;-69
2021/01/12 08:09:22;;;;;;;8.77;7.57;;;;;;;3.35;68.31;97276.75;8467925;28;20278;-70
2021/01/12 08:13:33;;;;;;;7.67;6.87;;;;;;;3.49;67.92;97263.56;8466830;28;20221;-69
2021/01/12 08:17:36;;;;;;;7.37;6.57;;;;;;;3.34;68.48;97269.94;8496834;27;20246;-68
2021/01/12 08:21:42;;;;;;;10.77;9.63;;;;;;;3.46;67.64;97258.50;8499617;27;20201;-68
2021/01/12 08:25:44;;;;;;;12.83;11.53;;;;;;;3.45;67.17;97247.44;8489427;27;20250;-68
2021/01/12 08:29:46;;;;;;;12.33;11.03;;;;;;;3.57;66.96;97248.81;8500183;27;20221;-68
2021/01/12 08:33:48;;;;;;;11.57;10.47;;;;;;;3.72;66.63;97247.56;8497848;27;20201;-68
2021/01/12 08:37:52;;;;;;;12.57;10.90;;;;;;;3.79;71.31;97241.38;8498965;27;20201;-68
2021/01/12 08:42:06;;;;;;;23.00;13.97;;;;;;;5.71;87.09;97241.16;8500394;27;20189;-69
2021/01/12 08:46:08;;;;;;;12.27;10.87;;;;;;;6.28;67.96;97237.31;8498769;27;20196;-68
2021/01/12 08:50:10;;;;;;;12.10;10.80;;;;;;;6.73;63.22;97238.97;8498276;27;20216;-68
2021/01/12 08:54:16;;;;;;;10.80;9.70;;;;;;;7.24;61.46;97227.41;8499454;27;20620;-68
2021/01/12 08:58:18;;;;;;;10.47;9.43;;;;;;;6.74;57.96;97225.22;8499400;27;20683;-72
2021/01/12 09:02:21;;;;;;;9.37;8.37;;;;;;;5.67;60.71;97225.88;8499770;27;20200;-75
2021/01/12 09:06:23;;;;;;;7.40;6.70;;;;;;;5.31;62.43;97222.84;8498993;27;20205;-72
2021/01/12 09:10:27;;;;;;;4.17;3.77;;;;;;;5.02;63.67;97222.13;8497983;27;20224;-70
2021/01/12 09:14:30;;;;;;;4.10;3.80;;;;;;;5.06;65.00;97222.88;8497915;27;20233;-70
2021/01/12 09:18:35;;;;;;;4.53;4.10;;;;;;;4.58;65.40;97224.44;8499033;27;20554;-74
2021/01/12 09:22:37;;;;;;;4.17;3.77;;;;;;;4.55;65.63;97224.56;8497971;27;20189;-69
2021/01/12 09:26:40;;;;;;;3.50;3.10;;;;;;;4.71;65.50;97222.31;8499485;27;20204;-70
2021/01/12 09:30:43;;;;;;;3.60;3.30;;;;;;;4.68;65.31;97213.03;8499016;27;20229;-70
2021/01/12 09:34:45;;;;;;;3.27;2.97;;;;;;;4.52;65.99;97211.81;8499359;27;20228;-68
2021/01/12 09:38:48;;;;;;;3.20;2.90;;;;;;;4.64;65.85;97208.03;8498823;27;20212;-71
2021/01/12 09:42:51;;;;;;;2.80;2.60;;;;;;;4.74;65.43;97201.72;8498158;28;20411;-70
2021/01/12 09:46:53;;;;;;;2.30;2.10;;;;;;;4.61;65.77;97200.44;8498567;28;20201;-70
2021/01/12 09:50:56;;;;;;;3.27;2.97;;;;;;;4.63;65.68;97194.38;8497742;28;20246;-71
2021/01/12 09:54:57;;;;;;;2.77;2.00;;;;;;;4.52;66.47;97188.75;8498673;28;20632;-71
2021/01/12 09:59:00;;;;;;;2.13;1.97;;;;;;;4.56;66.19;97192.06;8498926;28;20189;-70
2021/01/12 10:03:04;;;;;;;2.50;2.20;;;;;;;4.58;65.84;97177.47;8499139;28;20234;-71
2021/01/12 10:07:06;;;;;;;2.50;2.30;;;;;;;4.65;65.99;97184.06;8497400;28;20205;-71
2021/01/12 10:11:08;;;;;;;2.20;2.00;;;;;;;4.49;66.55;97179.44;8497745;28;20236;-69
2021/01/12 10:15:11;;;;;;;1.90;1.80;;;;;;;4.53;66.45;97169.06;8498437;27;20223;-68
2021/01/12 10:19:13;;;;;;;2.40;1.60;;;;;;;4.53;66.61;97166.50;8503295;27;20277;-69
2021/01/12 10:23:15;;;;;;;2.87;2.60;;;;;;;4.66;66.21;97160.06;8499487;27;20218;-71
2021/01/12 10:27:17;;;;;;;3.83;3.53;;;;;;;4.71;65.67;97153.06;8502317;27;20201;-71
2021/01/12 10:31:25;;;;;;;3.00;2.43;;;;;;;4.53;66.54;97151.13;8503234;27;20221;-70
2021/01/12 10:35:26;;;;;;;2.10;1.90;;;;;;;4.72;65.77;97149.59;8523517;27;20192;-70
2021/01/12 10:39:29;;;;;;;1.55;1.45;;;;;;;4.98;64.75;97141.00;8519141;27;20525;-69
2021/01/12 10:43:30;;;;;;;1.47;1.37;;;;;;;4.79;65.77;97130.56;8503485;27;20577;-66
2021/01/12 10:47:33;;;;;;;1.47;1.37;;;;;;;4.65;65.92;97125.06;8502707;27;20205;-65
2021/01/12 10:51:36;;;;;;;1.27;1.17;;;;;;;4.77;65.81;97136.63;8503614;27;20220;-65
2021/01/12 10:55:38;;;;;;;1.40;1.30;;;;;;;4.59;66.33;97128.69;8502254;27;20229;-65
2021/01/12 10:59:41;;;;;;;0.90;0.90;;;;;;;4.53;66.62;97121.19;8501807;27;20201;-65
2021/01/12 11:03:44;;;;;;;1.20;1.10;;;;;;;4.67;66.05;97113.88;8502432;27;20220;-67
2021/01/12 11:07:47;;;;;;;1.70;1.30;;;;;;;4.61;66.13;97103.00;8502298;27;20208;-65
2021/01/12 11:11:57;;;;;;;2.20;1.90;;;;;;;4.59;66.71;97097.06;8501238;27;20221;-65
2021/01/12 11:15:59;;;;;;;1.20;1.10;;;;;;;4.69;66.04;97088.16;8498969;27;20233;-65
2021/01/12 11:20:05;;;;;;;1.97;1.70;;;;;;;4.77;66.02;97086.16;8501319;27;20645;-65
2021/01/12 11:24:12;;;;;;;1.00;1.00;;;;;;;4.44;66.65;97075.38;8502367;27;20190;-65
2021/01/12 11:28:15;;;;;;;1.00;1.00;;;;;;;4.80;65.96;97067.28;8502097;27;20265;-64
2021/01/12 11:32:18;;;;;;;1.30;1.07;;;;;;;4.75;66.06;97064.88;8476745;27;20202;-65
2021/01/12 11:36:22;;;;;;;1.10;1.00;;;;;;;4.71;66.00;97063.31;8466474;28;20258;-72
2021/01/12 11:40:24;;;;;;;0.90;0.90;;;;;;;4.81;66.12;97054.38;8466445;28;20483;-73
2021/01/12 11:44:26;;;;;;;1.43;1.03;;;;;;;4.73;66.64;97051.25;8466134;28;20201;-73
2021/01/12 11:48:27;;;;;;;0.70;0.70;;;;;;;4.64;66.73;97044.72;8487471;27;20217;-72
2021/01/12 11:52:30;;;;;;;1.80;1.47;;;;;;;4.74;66.83;97039.25;8499897;27;20213;-71
2021/01/12 11:56:32;;;;;;;0.90;0.90;;;;;;;4.76;66.37;97033.22;8498300;27;20369;-74
2021/01/12 12:00:34;;;;;;;1.13;0.90;;;;;;;4.67;66.71;97025.84;8498406;27;20209;-74
2021/01/12 12:04:36;;;;;;;1.10;0.90;;;;;;;4.61;66.82;97016.63;8498883;27;20188;-71
2021/01/12 12:08:38;;;;;;;1.23;1.13;;;;;;;4.84;66.27;97008.09;8499438;27;20232;-70
2021/01/12 12:12:40;;;;;;;1.20;1.10;;;;;;;4.64;66.98;97006.25;8498403;27;20240;-71
2021/01/12 12:16:44;;;;;;;0.87;0.87;;;;;;;4.74;66.65;97003.34;8498470;27;20201;-71
2021/01/12 12:20:46;;;;;;;0.90;0.90;;;;;;;4.62;67.14;96992.66;8498134;27;20688;-70
2021/01/12 12:24:48;;;;;;;1.80;1.70;;;;;;;4.31;68.00;96985.22;8497870;27;20201;-70
2021/01/12 12:28:50;;;;;;;1.40;1.30;;;;;;;4.61;67.47;96982.47;8497812;27;20271;-69
2021/01/12 12:32:52;;;;;;;1.60;1.50;;;;;;;4.38;67.82;96971.31;8496783;27;20189;-70
2021/01/12 12:36:55;;;;;;;2.27;2.07;;;;;;;4.84;66.75;96979.06;8496279;27;20640;-71
2021/01/12 12:40:58;;;;;;;4.20;2.90;;;;;;;4.67;66.73;96977.94;8496354;27;20193;-71
2021/01/12 12:45:12;;;;;;;2.83;1.93;;;;;;;4.55;67.16;96975.84;8496356;27;20201;-70
2021/01/12 12:49:14;;;;;;;3.53;2.80;;;;;;;4.74;66.75;96960.59;8496137;27;20216;-71
2021/01/12 12:53:16;;;;;;;1.70;1.60;;;;;;;4.74;67.00;96959.75;8495546;27;20204;-70
2021/01/12 12:57:20;;;;;;;2.30;2.00;;;;;;;4.61;67.61;96946.56;8478188;27;20237;-66
2021/01/12 13:01:39;;;;;;;1.77;1.20;;;;;;;4.72;66.95;96941.84;8463969;28;20190;-65
2021/01/12 13:05:41;;;;;;;0.70;0.70;;;;;;;4.60;67.58;96938.00;8463097;28;20205;-65
2021/01/12 13:09:46;;;;;;;1.47;1.37;;;;;;;4.74;66.98;96939.22;8462519;28;20269;-66
2021/01/12 13:13:49;;;;;;;1.60;1.50;;;;;;;4.85;66.92;96929.41;8463333;28;20222;-66
2021/01/12 13:17:55;;;;;;;2.07;1.73;;;;;;;4.68;67.38;96936.03;8463922;28;20217;-65
2021/01/12 13:21:58;;;;;;;0.93;0.90;;;;;;;4.72;67.06;96933.31;8465064;28;20182;-65
2021/01/12 13:26:11;;;;;;;2.93;1.00;;;;;;;4.72;67.15;96939.28;8463931;28;20233;-65
2021/01/12 13:30:14;;;;;;;0.93;0.60;;;;;;;4.64;67.42;96926.75;8463624;28;20221;-64
2021/01/12 13:34:16;;;;;;;0.90;0.70;;;;;;;4.64;67.19;96929.31;8463516;28;20231;-74
2021/01/12 13:38:18;;;;;;;0.50;0.50;;;;;;;4.56;67.65;96935.63;8462678;27;20198;-73
2021/01/12 13:42:20;;;;;;;0.70;0.60;;;;;;;4.52;67.68;96939.19;8463775;28;20198;-73
2021/01/12 13:46:22;;;;;;;0.80;0.80;;;;;;;4.40;68.08;96931.06;8463759;28;20198;-73
2021/01/12 13:50:25;;;;;;;1.43;1.33;;;;;;;4.21;68.98;96925.75;8463799;28;20217;-73
2021/01/12 13:54:28;;;;;;;0.70;0.70;;;;;;;4.43;68.50;96924.97;8493417;27;20200;-75
2021/01/12 13:58:30;;;;;;;0.83;0.70;;;;;;;4.38;68.42;96937.97;8491704;27;20249;-75
2021/01/12 14:02:33;;;;;;;0.63;0.60;;;;;;;4.27;69.11;96933.22;8474690;27;20197;-74
2021/01/12 14:06:35;;;;;;;0.77;0.60;;;;;;;4.34;68.63;96950.94;8503155;27;20201;-71
2021/01/12 14:10:37;;;;;;;1.13;1.07;;;;;;;4.10;69.60;96941.50;8501172;27;20228;-71
2021/01/12 14:14:41;;;;;;;2.20;1.20;;;;;;;4.30;69.00;96940.81;8502760;27;20209;-70
2021/01/12 14:18:44;;;;;;;0.97;0.97;;;;;;;4.33;68.54;96934.72;8504923;27;20637;-71
2021/01/12 14:22:50;;;;;;;0.90;0.90;;;;;;;4.36;68.54;96944.88;8504370;27;20204;-71
2021/01/12 14:26:53;;;;;;;1.30;1.20;;;;;;;4.29;68.52;96943.44;8489045;27;20259;-70
2021/01/12 14:30:55;;;;;;;1.40;1.30;;;;;;;4.39;68.13;96949.88;8495854;27;20254;-72
2021/01/12 14:34:58;;;;;;;0.93;0.90;;;;;;;4.08;69.35;96950.97;8488943;27;20212;-71
2021/01/12 14:39:04;;;;;;;1.97;1.67;;;;;;;4.33;68.48;96956.97;8486829;27;20201;-71
2021/01/12 14:43:07;;;;;;;0.73;0.73;;;;;;;4.39;68.07;96961.88;8501732;27;20200;-72
2021/01/12 14:47:15;;;;;;;0.80;0.70;;;;;;;4.12;69.16;96954.25;8502524;27;20220;-71
2021/01/12 14:51:17;;;;;;;1.60;1.00;;;;;;;4.27;69.00;96966.53;8487905;27;20221;-74
2021/01/12 14:55:19;;;;;;;0.90;0.90;;;;;;;4.23;68.71;96964.16;8495984;27;20633;-71
2021/01/12 14:59:21;;;;;;;0.80;0.80;;;;;;;4.13;69.20;96967.91;8486636;27;20254;-72
2021/01/12 15:03:23;;;;;;;1.53;1.20;;;;;;;4.26;68.95;96962.28;8485344;27;20244;-71
2021/01/12 15:07:25;;;;;;;1.23;1.00;;;;;;;4.25;68.83;96959.81;8480611;27;20220;-72
2021/01/12 15:11:27;;;;;;;0.70;0.70;;;;;;;4.07;69.44;96954.44;8502626;27;20232;-71
2021/01/12 15:15:29;;;;;;;1.20;1.10;;;;;;;4.19;68.96;96957.44;8501705;27;20205;-72
2021/01/12 15:19:30;;;;;;;0.90;0.90;;;;;;;4.03;69.89;96952.84;8499010;27;20209;-71
2021/01/12 15:23:33;;;;;;;2.90;2.40;;;;;;;4.08;69.73;96953.53;8501600;27;20648;-72
2021/01/12 15:27:35;;;;;;;1.30;1.20;;;;;;;4.01;70.14;96954.63;8498453;27;20225;-72
2021/01/12 15:31:37;;;;;;;1.10;1.00;;;;;;;3.95;70.11;96956.56;8501481;27;20228;-72
2021/01/12 15:35:39;;;;;;;3.07;2.67;;;;;;;3.96;70.29;96960.78;8482878;27;20198;-73
2021/01/12 15:39:41;;;;;;;12.57;7.80;;;;;;;4.08;69.87;96953.53;8486921;27;20337;-72
2021/01/12 15:43:43;;;;;;;6.13;5.23;;;;;;;4.03;69.83;96950.28;8478521;27;20197;-72
2021/01/12 15:47:45;;;;;;;1.20;1.10;;;;;;;3.75;70.26;96952.97;8502482;27;20197;-73
2021/01/12 15:51:47;;;;;;;2.00;1.80;;;;;;;3.82;70.55;96956.97;8488095;27;20230;-73
2021/01/12 15:55:50;;;;;;;2.50;1.30;;;;;;;3.91;70.04;96951.53;8483524;27;20328;-72
2021/01/12 15:59:53;;;;;;;1.63;1.53;;;;;;;3.86;70.54;96957.72;8494160;27;20285;-73
2021/01/12 16:03:56;;;;;;;1.33;1.23;;;;;;;3.87;70.57;96965.34;8481331;27;20190;-72
2021/01/12 16:08:00;;;;;;;1.37;1.27;;;;;;;4.03;69.86;96964.81;8475077;27;20604;-71
2021/01/12 16:12:04;;;;;;;1.20;1.10;;;;;;;4.03;69.66;96978.47;8476064;27;20237;-71
2021/01/12 16:16:07;;;;;;;2.30;1.60;;;;;;;4.04;69.50;96987.00;8498047;27;20201;-71
2021/01/12 16:20:10;;;;;;;1.77;1.60;;;;;;;3.87;70.04;96985.84;8470584;27;20213;-73
2021/01/12 16:24:13;;;;;;;1.57;1.30;;;;;;;4.04;70.07;96987.00;8470804;27;20206;-73
2021/01/12 16:28:18;;;;;;;2.07;1.00;;;;;;;4.00;69.67;96983.72;8476162;27;20217;-72
2021/01/12 16:32:24;;;;;;;1.00;1.00;;;;;;;3.78;70.31;96982.75;8465705;27;20190;-72
2021/01/12 16:36:27;;;;;;;1.73;1.20;;;;;;;4.06;69.96;96993.75;8467003;27;20523;-72
2021/01/12 16:40:30;;;;;;;34.97;4.60;;;;;;;6.61;88.01;97001.03;8496427;27;20595;-71
2021/01/12 16:44:34;;;;;;;5.97;1.90;;;;;;;7.56;67.93;96993.28;8499236;27;20215;-70
2021/01/12 16:48:37;;;;;;;1.30;1.20;;;;;;;6.31;63.31;96999.81;8484512;27;20197;-71
2021/01/12 16:52:39;;;;;;;1.37;1.27;;;;;;;5.50;64.27;97012.44;8465503;28;20535;-72
2021/01/12 16:57:01;;;;;;;1.50;1.33;;;;;;;4.84;66.63;97008.09;8480096;27;20563;-70
2021/01/12 17:01:05;;;;;;;1.30;1.20;;;;;;;4.52;68.08;97006.69;8465243;27;20209;-66
2021/01/12 17:05:09;;;;;;;1.20;1.10;;;;;;;4.66;67.95;97024.16;8464526;28;20201;-66
2021/01/12 17:09:14;;;;;;;1.83;1.58;;;;;;;5.04;66.52;97027.88;8462993;28;20448;-65
2021/01/12 17:13:18;;;;;;;5.53;4.43;;;;;;;4.38;68.61;97024.28;8464979;28;20262;-76
2021/01/12 17:17:21;;;;;;;5.83;4.30;;;;;;;4.56;67.96;97028.78;8464187;28;20241;-76
2021/01/12 17:21:34;;;;;;;3.63;2.83;;;;;;;4.41;68.53;97032.69;8464711;28;20205;-72
2021/01/12 17:25:37;;;;;;;1.97;1.73;;;;;;;4.30;69.17;97039.91;8486115;27;20194;-77
2021/01/12 17:29:39;;;;;;;2.03;1.30;;;;;;;4.23;68.82;97052.13;8499130;27;20221;-71
2021/01/12 17:33:42;;;;;;;1.60;1.50;;;;;;;4.32;69.10;97061.22;8497690;27;20197;-75
2021/01/12 17:37:45;;;;;;;1.43;1.33;;;;;;;4.12;69.88;97061.88;8499143;27;20193;-73
2021/01/12 17:41:49;;;;;;;1.40;1.30;;;;;;;4.21;69.77;97071.84;8497343;27;20201;-72
2021/01/12 17:45:51;;;;;;;1.80;1.40;;;;;;;4.10;69.94;97074.75;8498105;27;20197;-74
2021/01/12 17:49:54;;;;;;;1.50;1.40;;;;;;;4.06;70.38;97087.72;8497731;28;20269;-73
2021/01/12 17:53:57;;;;;;;3.50;2.93;;;;;;;4.11;70.08;97088.38;8498561;28;20192;-73
2021/01/12 17:58:00;;;;;;;2.80;2.60;;;;;;;4.08;70.43;97093.63;8498410;28;20232;-74
2021/01/12 18:02:07;;;;;;;2.87;2.57;;;;;;;4.35;68.99;97102.13;8494943;28;20411;-74
2021/01/12 18:06:10;;;;;;;1.47;1.37;;;;;;;4.06;70.34;97111.59;8491913;27;20290;-73
2021/01/12 18:10:15;;;;;;;1.50;1.40;;;;;;;4.67;68.10;97115.59;8461014;27;20447;-73
2021/01/12 18:14:17;;;;;;;1.45;1.35;;;;;;;4.50;68.39;97119.56;8462463;28;20827;-73
2021/01/12 18:18:19;;;;;;;2.33;1.50;;;;;;;4.20;69.96;97135.97;8464040;28;20220;-72
2021/01/12 18:22:23;;;;;;;1.70;1.60;;;;;;;4.37;69.10;97143.94;8462570;27;20258;-72
2021/01/12 18:26:26;;;;;;;1.80;1.70;;;;;;;4.27;69.57;97148.53;8481531;27;20201;-73
2021/01/12 18:30:29;;;;;;;1.73;1.50;;;;;;;4.19;69.97;97162.47;8466634;27;20225;-73
2021/01/12 18:34:31;;;;;;;2.07;1.97;;;;;;;4.13;69.50;97168.63;8476731;28;20259;-74
2021/01/12 18:38:35;;;;;;;2.30;2.10;;;;;;;4.31;69.70;97167.22;8486983;27;20193;-75
2021/01/12 18:42:39;;;;;;;2.30;2.10;;;;;;;4.20;69.71;97182.91;8501796;27;20201;-76
2021/01/12 18:46:44;;;;;;;2.13;1.93;;;;;;;4.31;69.48;97187.72;8502012;27;20201;-75
2021/01/12 18:50:46;;;;;;;1.67;1.53;;;;;;;4.22;69.18;97198.25;8502095;27;20315;-76
2021/01/12 18:54:49;;;;;;;1.60;1.50;;;;;;;4.23;70.20;97205.91;8501551;27;20197;-76
2021/01/12 18:58:52;;;;;;;1.90;1.37;;;;;;;4.27;69.65;97210.03;8501251;27;20193;-76
2021/01/12 19:02:57;;;;;;;1.60;1.50;;;;;;;4.21;69.76;97217.09;8499415;27;20208;-74
2021/01/12 19:07:00;;;;;;;1.83;1.73;;;;;;;4.46;70.83;97235.09;8520731;27;20671;-77